Strona główna
METAR-TAF:

METAR-TAF

Lotnisko :

Benson, Anglia

Szerokość geograficzna: 51-37N, Długość geograficzna: 001-05W, wysokość: 63 m

Aktualna obserwacja pogody

Raport powstał 58 minut temu, godzina 04:50 UTC
Wiatr 5 kt od północno-północny zachód
Temperatura 10°C
Wilgotność 82%
Ciśnienie 1023 hPa
Widzialność 10 km lub więcej

METAR: EGUB 010450Z AUTO 34005KT 9999 // NCD 10/07 Q1023

czas: 06:48 (05:48 UTC)


TAF: brakujący

Obserwacja i prognoza pogody dla ponad 4000 lotnisk (raport METAR i TAF).

Dostępne stacje oznaczono żółtymi i czerwonymi punktami na mapie.

Najedź kursorem aby zobaczyć nazwę stacji.

Kliknij aby zobaczyć obserwacje i prognozy pogody.

Aby zmienić mapę: kliknij na zielony przycisk z czarnym krzyżykiem, aby powiększyć; na zielony przycisk z myślnikiem, aby pomniejszyć; na zielone strzałki, aby przejść do map sąsiednich.


METAR-TAF: